WetterOnline ( https://www.wetteronline.de )

Wetter aktuell Schaufling

Aktuelles Wetter: Zwiesel (613m)

6-stündlich | Neueste Meldungen
Ortszeit Temperatur Wetter
Di, 17.05. 2:00 14.3° C Regen
Mo, 16.05. 20:00 16.3° C leichter Regen
Mo, 16.05. 14:00 23.3° C wolkig
Mo, 16.05. 8:00 13.0° C wolkenlos
Mo, 16.05. 2:00 13.3° C wolkenlos
So, 15.05. 20:00 19.8° C wolkenlos
So, 15.05. 14:00 22.5° C wolkenlos
So, 15.05. 8:00 13.7° C wolkenlos
Ortszeit Temperatur Wetter
Di, 17.05. 2:00 14.3° C Regen
Di, 17.05. 1:50 14.3° C bewölkt
Di, 17.05. 1:40 14.3° C leichter Regen
Di, 17.05. 1:30 14.4° C leichter Regen
Di, 17.05. 1:20 14.4° C leichter Regen
Di, 17.05. 1:10 14.5° C leichter Regen
Di, 17.05. 1:00 14.5° C Regen
Di, 17.05. 0:30 14.4° C bewölkt
Di, 17.05. 0:00 14.2° C bewölkt
Mo, 16.05. 23:30 14.4° C bedeckt
Mo, 16.05. 23:00 14.3° C bewölkt
Ortszeit Relative Feuchte Sichtweite
Di, 17.05. 2:00 96% 11 km
Mo, 16.05. 20:00 79% 30 km
Mo, 16.05. 14:00 36% >70 km
Mo, 16.05. 8:00 70% 35 km
Mo, 16.05. 2:00 65% 50 km
So, 15.05. 20:00 48% 45 km
So, 15.05. 14:00 30% 50 km
So, 15.05. 8:00 71% 40 km
Ortszeit Relative Feuchte Sichtweite
Di, 17.05. 2:00 96% 11 km
Di, 17.05. 1:50 96% -
Di, 17.05. 1:40 96% -
Di, 17.05. 1:30 96% 12 km
Di, 17.05. 1:20 96% -
Di, 17.05. 1:10 96% -
Di, 17.05. 1:00 96% 6 km
Di, 17.05. 0:30 96% 13 km
Di, 17.05. 0:00 96% 12 km
Mo, 16.05. 23:30 96% 11 km
Mo, 16.05. 23:00 96% 16 km
Ortszeit Niederschlagsmenge Niederschlagsart
Di, 17.05. 2:00 5 l/m2 in 6 Std. Regen
Mo, 16.05. 20:00 0.4 l/m2 in 12 Std. Regen
Mo, 16.05. 14:00 0.0 l/m2 in 6 Std. -
Mo, 16.05. 8:00 0.0 l/m2 in 12 Std. -
Mo, 16.05. 2:00 0.0 l/m2 in 6 Std. -
So, 15.05. 20:00 0.0 l/m2 in 12 Std. -
So, 15.05. 14:00 0.0 l/m2 in 6 Std. -
So, 15.05. 8:00 0.0 l/m2 in 12 Std. -
Ortszeit Niederschlagsmenge Niederschlagsart
Di, 17.05. 2:00 0.4 l/m2 in 1 Std. Regen
Di, 17.05. 1:50 keine Meldung -
Di, 17.05. 1:40 keine Meldung -
Di, 17.05. 1:30 0.3 l/m2 in 1 Std. -
Di, 17.05. 1:20 keine Meldung -
Di, 17.05. 1:10 keine Meldung -
Di, 17.05. 1:00 2.1 l/m2 in 1 Std. Regen
Di, 17.05. 0:30 0.0 l/m2 in 1 Std. -
Di, 17.05. 0:00 0.0 l/m2 in 1 Std. -
Mo, 16.05. 23:30 0.0 l/m2 in 1 Std. -
Mo, 16.05. 23:00 0.1 l/m2 in 1 Std. Regen
Ortszeit Stärke Spitze Richtung
km/h Bft. km/h Grad Sektor
Di, 17.05. 2:00 4 1 14 130° SO
Mo, 16.05. 20:00 7 2 29 340° N
Mo, 16.05. 14:00 11 2 25 200° S
Mo, 16.05. 8:00 2 1 15 260° W
Mo, 16.05. 2:00 7 2 18 60° NO
So, 15.05. 20:00 11 2 29 30° NO
So, 15.05. 14:00 7 2 29 210° SW
So, 15.05. 8:00 0 0 11 - -
Ortszeit Stärke Spitze Richtung
km/h Bft. km/h Grad Sektor
Di, 17.05. 2:00 4 1 14 130° SO
Di, 17.05. 1:50 4 1 - 130° SO
Di, 17.05. 1:40 2 1 - 150° SO
Di, 17.05. 1:30 4 1 14 150° SO
Di, 17.05. 1:20 4 1 - 150° SO
Di, 17.05. 1:10 7 2 - 190° S
Di, 17.05. 1:00 7 2 14 220° SW
Di, 17.05. 0:30 4 1 7 150° SO
Di, 17.05. 0:00 4 1 7 120° SO
Mo, 16.05. 23:30 4 1 7 220° SW
Mo, 16.05. 23:00 4 1 7 220° SW
Ortszeit Untergrenze Bedeckung Gattung
total tief tief mittel hoch
Di, 17.05. 2:00 270 m 7/8 7/8 - - -
Mo, 16.05. 20:00 60 m 6/8 6/8 - - -
Mo, 16.05. 14:00 3000 m 7/8 7/8 - - -
Mo, 16.05. 8:00 - 0/8 0/8 - - -
Mo, 16.05. 2:00 - 0/8 0/8 - - -
So, 15.05. 20:00 - 0/8 0/8 - - -
So, 15.05. 14:00 - 0/8 0/8 - - -
So, 15.05. 8:00 - 0/8 0/8 - - -
Ortszeit Bedeckungsgrad in Achtel und Wolkenuntergrenze
Di, 17.05. 2:00 2(270m) 6(510m) 7(750m)
Di, 17.05. 1:50 2(270m) 6(510m) 7(750m)
Di, 17.05. 1:40 7
Di, 17.05. 1:30 4(270m) 7(480m) 8(1800m)
Di, 17.05. 1:20 4(270m) 7(480m) 8(1800m)
Di, 17.05. 1:10 8
Di, 17.05. 1:00 2(180m) 7(690m) 8(930m)
Di, 17.05. 0:30 3(180m) 7(270m) 7(450m)
Di, 17.05. 0:00 2(60m) 4(210m) 7(390m)
Mo, 16.05. 23:30 5(60m) 7(180m) 8(720m)
Mo, 16.05. 23:00 2(750m) 7(2400m)
Ortszeit Luftdruck NN (hPa) Tendenz (hPa in 3 Std.)
Di, 17.05. 2:00 1019 - 0,3
Mo, 16.05. 20:00 1018 + 0,8
Mo, 16.05. 14:00 1017 - 0,3
Mo, 16.05. 8:00 1019 + 0,7
Mo, 16.05. 2:00 1019 + 0,1
So, 15.05. 20:00 1016 - 0,3
So, 15.05. 14:00 1017 - 1,1
So, 15.05. 8:00 1021 + 0,3
Ortszeit Luftdruck NN (hPa) Tendenz (hPa in 3 Std.)
Di, 17.05. 2:00 1019 - 0,3
Di, 17.05. 1:50 1019 keine Meldung
Di, 17.05. 1:40 1020 keine Meldung
Di, 17.05. 1:30 1020 + 0,1
Di, 17.05. 1:20 1020 keine Meldung
Di, 17.05. 1:10 1020 keine Meldung
Di, 17.05. 1:00 1020 0,0
Di, 17.05. 0:30 1020 - 0,1
Di, 17.05. 0:00 1020 + 0,3
Mo, 16.05. 23:30 1020 + 1,0
Mo, 16.05. 23:00 1020 + 1,1
Ortszeit Schneehöhe (cm)
Di, 17.05. 2:00 0
Mo, 16.05. 20:00 0
Mo, 16.05. 14:00 0
Mo, 16.05. 8:00 0
Mo, 16.05. 2:00 0
So, 15.05. 20:00 0
So, 15.05. 14:00 0
So, 15.05. 8:00 0
Ortszeit Schneehöhe (cm)
Di, 17.05. 2:00 0
Di, 17.05. 1:50 0
Di, 17.05. 1:40 0
Di, 17.05. 1:30 0
Di, 17.05. 1:20 0
Di, 17.05. 1:10 0
Di, 17.05. 1:00 0
Di, 17.05. 0:30 0
Di, 17.05. 0:00 0
Mo, 16.05. 23:30 0
Mo, 16.05. 23:00 0
Link zu dieser Seite / Seite empfehlen

Das Wetter in ...